createdAt,value
2023-01-27T00:00:17.575Z,1017.73
2023-01-27T00:01:17.585Z,1017.75
2023-01-27T00:02:17.592Z,1017.75
2023-01-27T00:03:17.596Z,1017.75
2023-01-27T00:04:17.534Z,1017.78
2023-01-27T00:05:17.515Z,1017.76
2023-01-27T00:06:17.511Z,1017.80
2023-01-27T00:07:17.514Z,1017.73
2023-01-27T00:08:17.519Z,1017.82
2023-01-27T00:09:17.497Z,1017.78
2023-01-27T00:10:17.467Z,1017.83
2023-01-27T00:11:17.451Z,1017.78
2023-01-27T00:12:17.452Z,1017.83
2023-01-27T00:13:17.430Z,1017.84
2023-01-27T00:14:17.445Z,1017.86
2023-01-27T00:15:17.410Z,1017.82
2023-01-27T00:16:17.518Z,1017.81
2023-01-27T00:17:17.391Z,1017.76
2023-01-27T00:18:17.383Z,1017.81
2023-01-27T00:19:17.369Z,1017.81
2023-01-27T00:20:17.375Z,1017.76
2023-01-27T00:21:17.366Z,1017.79
2023-01-27T00:22:17.341Z,1017.80
2023-01-27T00:23:17.325Z,1017.80
2023-01-27T00:24:17.386Z,1017.74
2023-01-27T00:25:17.344Z,1017.74
2023-01-27T00:26:17.299Z,1017.72
2023-01-27T00:27:17.289Z,1017.74
2023-01-27T00:28:17.273Z,1017.71
2023-01-27T00:29:17.283Z,1017.67
2023-01-27T00:30:17.274Z,1017.65
2023-01-27T00:31:17.386Z,1017.66
2023-01-27T00:32:17.228Z,1017.67
2023-01-27T00:33:17.216Z,1017.70
2023-01-27T00:34:17.215Z,1017.69
2023-01-27T00:35:17.210Z,1017.71
2023-01-27T00:36:17.193Z,1017.83
2023-01-27T00:37:17.174Z,1017.75
2023-01-27T00:38:17.187Z,1017.81
2023-01-27T00:39:17.151Z,1017.78
2023-01-27T00:40:18.168Z,1017.79
2023-01-27T00:41:17.157Z,1017.86
2023-01-27T00:42:17.127Z,1017.80
2023-01-27T00:43:17.106Z,1017.82
2023-01-27T00:44:17.100Z,1017.88
2023-01-27T00:45:17.116Z,1017.88
2023-01-27T00:46:17.127Z,1017.88
2023-01-27T00:47:17.075Z,1017.85
2023-01-27T00:48:17.059Z,1017.84
2023-01-27T00:49:17.046Z,1017.83
2023-01-27T00:50:17.069Z,1017.78
2023-01-27T00:51:17.025Z,1017.84
2023-01-27T00:52:17.019Z,1017.89
2023-01-27T00:53:17.012Z,1017.82
2023-01-27T00:54:16.994Z,1017.86
2023-01-27T00:55:16.997Z,1017.88
2023-01-27T00:56:16.993Z,1017.82
2023-01-27T00:57:16.985Z,1017.85
2023-01-27T00:58:16.953Z,1017.90
2023-01-27T00:59:16.977Z,1017.87
2023-01-27T01:00:17.314Z,1017.90
2023-01-27T01:01:16.963Z,1017.94
2023-01-27T01:02:16.906Z,1017.94
2023-01-27T01:03:16.897Z,1017.94
2023-01-27T01:04:16.891Z,1017.95
2023-01-27T01:05:16.880Z,1017.91
2023-01-27T01:06:16.895Z,1017.96
2023-01-27T01:07:16.853Z,1017.97
2023-01-27T01:08:16.847Z,1017.92
2023-01-27T01:09:16.837Z,1018.02
2023-01-27T01:10:16.827Z,1017.96
2023-01-27T01:11:16.837Z,1018.01
2023-01-27T01:12:16.806Z,1017.99
2023-01-27T01:13:16.806Z,1017.95
2023-01-27T01:14:16.786Z,1017.92
2023-01-27T01:15:16.767Z,1017.97
2023-01-27T01:16:16.845Z,1017.91
2023-01-27T01:17:16.753Z,1017.98
2023-01-27T01:18:16.746Z,1017.93
2023-01-27T01:19:16.727Z,1018.00
2023-01-27T01:20:16.727Z,1018.02
2023-01-27T01:21:16.747Z,1017.98
2023-01-27T01:22:16.695Z,1017.98
2023-01-27T01:23:16.688Z,1017.94
2023-01-27T01:24:16.708Z,1017.98
2023-01-27T01:25:16.662Z,1018.03
2023-01-27T01:26:16.659Z,1018.03
2023-01-27T01:27:16.652Z,1018.01
2023-01-27T01:28:16.636Z,1018.03
2023-01-27T01:29:16.637Z,1018.00
2023-01-27T01:30:16.613Z,1018.05
2023-01-27T01:31:16.674Z,1018.07
2023-01-27T01:32:16.585Z,1018.01
2023-01-27T01:33:16.599Z,1018.17
2023-01-27T01:34:16.570Z,1018.09
2023-01-27T01:35:16.560Z,1018.10
2023-01-27T01:36:16.547Z,1018.07
2023-01-27T01:37:16.572Z,1018.09
2023-01-27T01:38:16.521Z,1018.11
2023-01-27T01:39:16.518Z,1018.04
2023-01-27T01:40:16.510Z,1018.13
2023-01-27T01:41:16.494Z,1018.09
2023-01-27T01:42:16.483Z,1018.11
2023-01-27T01:43:16.494Z,1018.10
2023-01-27T01:44:16.460Z,1018.09
2023-01-27T01:45:16.473Z,1018.08
2023-01-27T01:46:16.502Z,1018.07
2023-01-27T01:47:16.433Z,1018.20
2023-01-27T01:48:16.446Z,1018.15
2023-01-27T01:49:16.407Z,1018.16
2023-01-27T01:50:16.396Z,1018.16
2023-01-27T01:51:16.392Z,1018.19
2023-01-27T01:52:16.374Z,1018.15
2023-01-27T01:53:16.376Z,1018.14
2023-01-27T01:54:16.381Z,1018.20
2023-01-27T01:55:16.343Z,1018.18
2023-01-27T01:56:16.328Z,1018.25
2023-01-27T01:57:16.332Z,1018.14
2023-01-27T01:58:16.308Z,1018.25
2023-01-27T01:59:16.326Z,1018.24
2023-01-27T02:00:16.569Z,1018.18
2023-01-27T02:01:16.400Z,1018.26
2023-01-27T02:02:16.383Z,1018.22
2023-01-27T02:03:16.259Z,1018.23
2023-01-27T02:04:16.266Z,1018.16
2023-01-27T02:05:16.235Z,1018.14
2023-01-27T02:06:16.225Z,1018.19
2023-01-27T02:07:16.215Z,1018.19
2023-01-27T02:08:16.210Z,1018.14
2023-01-27T02:09:16.218Z,1018.13
2023-01-27T02:10:16.185Z,1018.15
2023-01-27T02:11:16.173Z,1018.07
2023-01-27T02:12:16.172Z,1018.11
2023-01-27T02:13:16.151Z,1018.12
2023-01-27T02:14:16.172Z,1018.07
2023-01-27T02:15:16.133Z,1018.06
2023-01-27T02:16:16.181Z,1018.08
2023-01-27T02:17:16.139Z,1018.09
2023-01-27T02:18:16.095Z,1018.05
2023-01-27T02:19:16.097Z,1018.13
2023-01-27T02:20:16.090Z,1018.07
2023-01-27T02:21:16.085Z,1018.12
2023-01-27T02:22:16.056Z,1018.12
2023-01-27T02:23:16.050Z,1018.21
2023-01-27T02:24:16.109Z,1018.11
2023-01-27T02:25:16.047Z,1018.16
2023-01-27T02:26:16.022Z,1018.13
2023-01-27T02:27:16.001Z,1018.12
2023-01-27T02:28:15.994Z,1018.14
2023-01-27T02:29:16.002Z,1018.14
2023-01-27T02:30:15.996Z,1018.17
2023-01-27T02:31:16.098Z,1018.11
2023-01-27T02:32:15.957Z,1018.11
2023-01-27T02:33:15.988Z,1018.11
2023-01-27T02:34:15.932Z,1018.06
2023-01-27T02:35:16.215Z,1018.10
2023-01-27T02:36:15.906Z,1018.06
2023-01-27T02:37:15.899Z,1018.03
2023-01-27T02:38:15.886Z,1018.11
2023-01-27T02:39:15.879Z,1018.06
2023-01-27T02:40:15.897Z,1018.11
2023-01-27T02:41:15.886Z,1018.09
2023-01-27T02:42:15.840Z,1018.14
2023-01-27T02:43:15.851Z,1018.09
2023-01-27T02:44:15.827Z,1018.19
2023-01-27T02:45:16.093Z,1018.17
2023-01-27T02:46:15.963Z,1018.18
2023-01-27T02:47:15.787Z,1018.25
2023-01-27T02:48:15.788Z,1018.20
2023-01-27T02:49:15.816Z,1018.23
2023-01-27T02:50:15.757Z,1018.18
2023-01-27T02:51:15.758Z,1018.33
2023-01-27T02:52:15.736Z,1018.27
2023-01-27T02:53:15.727Z,1018.26
2023-01-27T02:54:15.729Z,1018.34
2023-01-27T02:55:15.733Z,1018.36
2023-01-27T02:56:15.745Z,1018.35
2023-01-27T02:57:15.681Z,1018.38
2023-01-27T02:58:15.670Z,1018.40
2023-01-27T02:59:15.683Z,1018.34
2023-01-27T03:00:15.643Z,1018.33
2023-01-27T03:01:15.744Z,1018.35
2023-01-27T03:02:15.668Z,1018.36
2023-01-27T03:03:15.638Z,1018.39
2023-01-27T03:04:15.620Z,1018.29
2023-01-27T03:05:15.939Z,1018.33
2023-01-27T03:06:15.594Z,1018.34
2023-01-27T03:07:15.581Z,1018.35
2023-01-27T03:08:15.595Z,1018.37
2023-01-27T03:09:15.580Z,1018.31
2023-01-27T03:10:15.552Z,1018.33
2023-01-27T03:11:15.539Z,1018.36
2023-01-27T03:12:15.521Z,1018.29
2023-01-27T03:13:15.532Z,1018.31
2023-01-27T03:14:15.518Z,1018.28
2023-01-27T03:15:15.880Z,1018.33
2023-01-27T03:16:15.476Z,1018.32
2023-01-27T03:17:15.493Z,1018.19
2023-01-27T03:18:15.458Z,1018.30
2023-01-27T03:19:15.471Z,1018.29
2023-01-27T03:20:15.438Z,1018.26
2023-01-27T03:21:15.457Z,1018.19
2023-01-27T03:22:15.448Z,1018.32
2023-01-27T03:23:15.419Z,1018.34
2023-01-27T03:24:15.455Z,1018.32
2023-01-27T03:25:15.832Z,1018.30
2023-01-27T03:26:15.369Z,1018.32
2023-01-27T03:27:15.401Z,1018.24
2023-01-27T03:28:15.381Z,1018.33
2023-01-27T03:29:15.351Z,1018.28
2023-01-27T03:30:15.324Z,1018.35
2023-01-27T03:31:15.442Z,1018.35
2023-01-27T03:32:15.312Z,1018.29
2023-01-27T03:33:15.342Z,1018.27
2023-01-27T03:34:15.285Z,1018.26
2023-01-27T03:35:15.526Z,1018.30
2023-01-27T03:36:15.277Z,1018.29
2023-01-27T03:37:15.285Z,1018.25
2023-01-27T03:38:15.270Z,1018.34
2023-01-27T03:39:15.232Z,1018.31
2023-01-27T03:40:15.219Z,1018.30
2023-01-27T03:41:15.216Z,1018.28
2023-01-27T03:42:15.253Z,1018.37
2023-01-27T03:43:15.197Z,1018.38
2023-01-27T03:44:15.178Z,1018.39
2023-01-27T03:45:15.338Z,1018.35
2023-01-27T03:46:15.237Z,1018.44
2023-01-27T03:47:15.170Z,1018.42
2023-01-27T03:48:15.134Z,1018.44
2023-01-27T03:49:15.130Z,1018.42
2023-01-27T03:50:15.118Z,1018.37
2023-01-27T03:51:15.107Z,1018.39
2023-01-27T03:52:15.116Z,1018.33
2023-01-27T03:53:15.127Z,1018.36
2023-01-27T03:54:15.072Z,1018.37
2023-01-27T03:55:15.408Z,1018.34
2023-01-27T03:56:15.055Z,1018.35
2023-01-27T03:57:15.050Z,1018.37
2023-01-27T03:58:15.060Z,1018.32
2023-01-27T03:59:15.020Z,1018.29
2023-01-27T04:00:15.035Z,1018.30
2023-01-27T04:01:15.047Z,1018.28
2023-01-27T04:02:14.983Z,1018.28
2023-01-27T04:03:14.979Z,1018.29
2023-01-27T04:04:14.966Z,1018.31
2023-01-27T04:05:15.512Z,1018.33
2023-01-27T04:06:14.952Z,1018.32
2023-01-27T04:07:14.931Z,1018.35
2023-01-27T04:08:14.924Z,1018.31
2023-01-27T04:09:14.939Z,1018.25
2023-01-27T04:10:14.923Z,1018.30
2023-01-27T04:11:14.897Z,1018.28
2023-01-27T04:12:14.879Z,1018.26
2023-01-27T04:13:14.873Z,1018.24
2023-01-27T04:14:14.860Z,1018.23
2023-01-27T04:15:15.286Z,1018.27
2023-01-27T04:16:14.880Z,1018.22
2023-01-27T04:17:14.829Z,1018.22
2023-01-27T04:18:14.813Z,1018.23
2023-01-27T04:19:14.809Z,1018.32
2023-01-27T04:20:14.833Z,1018.24
2023-01-27T04:21:14.790Z,1018.20
2023-01-27T04:22:14.773Z,1018.27
2023-01-27T04:23:14.772Z,1018.20
2023-01-27T04:24:14.777Z,1018.23
2023-01-27T04:25:15.325Z,1018.20
2023-01-27T04:26:14.752Z,1018.23
2023-01-27T04:27:14.726Z,1018.23
2023-01-27T04:28:14.714Z,1018.34
2023-01-27T04:29:14.704Z,1018.25
2023-01-27T04:30:14.712Z,1018.27
2023-01-27T04:31:14.861Z,1018.20
2023-01-27T04:32:14.702Z,1018.36
2023-01-27T04:33:14.662Z,1018.33
2023-01-27T04:34:14.648Z,1018.34
2023-01-27T04:35:15.074Z,1018.32
2023-01-27T04:36:14.625Z,1018.31
2023-01-27T04:37:14.619Z,1018.25
2023-01-27T04:38:14.605Z,1018.29
2023-01-27T04:39:14.594Z,1018.30
2023-01-27T04:40:14.609Z,1018.37
2023-01-27T04:41:14.611Z,1018.30
2023-01-27T04:42:14.559Z,1018.33
2023-01-27T04:43:14.552Z,1018.38
2023-01-27T04:44:14.538Z,1018.43
2023-01-27T04:45:15.148Z,1018.42
2023-01-27T04:46:14.534Z,1018.44
2023-01-27T04:47:14.508Z,1018.44
2023-01-27T04:48:14.492Z,1018.39
2023-01-27T04:49:14.488Z,1018.33
2023-01-27T04:50:14.506Z,1018.39
2023-01-27T04:51:14.466Z,1018.39
2023-01-27T04:52:14.478Z,1018.38
2023-01-27T04:53:14.454Z,1018.41
2023-01-27T04:54:14.430Z,1018.39
2023-01-27T04:55:15.078Z,1018.40
2023-01-27T04:56:14.414Z,1018.37
2023-01-27T04:57:14.458Z,1018.44
2023-01-27T04:58:14.387Z,1018.44
2023-01-27T04:59:14.391Z,1018.47
2023-01-27T05:00:16.510Z,1018.49
2023-01-27T05:01:14.385Z,1018.53
2023-01-27T05:02:14.469Z,1018.53
2023-01-27T05:03:14.536Z,1018.58
2023-01-27T05:04:14.323Z,1018.54
2023-01-27T05:05:14.686Z,1018.53
2023-01-27T05:06:14.323Z,1018.55
2023-01-27T05:07:14.319Z,1018.55
2023-01-27T05:08:14.281Z,1018.62
2023-01-27T05:09:14.276Z,1018.60
2023-01-27T05:10:14.259Z,1018.62
2023-01-27T05:11:14.253Z,1018.59
2023-01-27T05:12:14.261Z,1018.62
2023-01-27T05:13:14.249Z,1018.69
2023-01-27T05:14:14.239Z,1018.66
2023-01-27T05:15:14.446Z,1018.65
2023-01-27T05:16:14.194Z,1018.68
2023-01-27T05:17:14.205Z,1018.65
2023-01-27T05:18:14.179Z,1018.68
2023-01-27T05:19:14.198Z,1018.71
2023-01-27T05:20:14.155Z,1018.77
2023-01-27T05:21:14.146Z,1018.80
2023-01-27T05:22:14.132Z,1018.70
2023-01-27T05:23:14.123Z,1018.82
2023-01-27T05:24:14.171Z,1018.85
2023-01-27T05:25:14.497Z,1018.83
2023-01-27T05:26:14.096Z,1018.78
2023-01-27T05:27:14.084Z,1018.84
2023-01-27T05:28:14.090Z,1018.83
2023-01-27T05:29:14.112Z,1018.86
2023-01-27T05:30:14.050Z,1018.83
2023-01-27T05:31:14.163Z,1018.76
2023-01-27T05:32:14.029Z,1018.86
2023-01-27T05:33:14.015Z,1018.84
2023-01-27T05:34:14.033Z,1018.87
2023-01-27T05:35:14.367Z,1018.90
2023-01-27T05:36:14.001Z,1018.97
2023-01-27T05:37:14.148Z,1018.98
2023-01-27T05:38:13.962Z,1018.94
2023-01-27T05:39:13.980Z,1018.97
2023-01-27T05:40:13.940Z,1018.92
2023-01-27T05:41:13.935Z,1018.89
2023-01-27T05:42:13.936Z,1018.94
2023-01-27T05:43:13.912Z,1018.91
2023-01-27T05:44:13.930Z,1018.92
2023-01-27T05:45:14.167Z,1018.94
2023-01-27T05:46:13.882Z,1018.94
2023-01-27T05:47:13.867Z,1018.94
2023-01-27T05:48:13.860Z,1018.92
2023-01-27T05:49:13.861Z,1018.98
2023-01-27T05:50:13.838Z,1018.89
2023-01-27T05:51:15.161Z,1019.01
2023-01-27T05:52:13.826Z,1018.94
2023-01-27T05:53:13.808Z,1018.99
2023-01-27T05:54:13.793Z,1019.01
2023-01-27T05:55:14.312Z,1019.10
2023-01-27T05:56:13.797Z,1019.06
2023-01-27T05:57:13.764Z,1019.00
2023-01-27T05:58:13.755Z,1019.02
2023-01-27T05:59:13.739Z,1019.08
2023-01-27T06:00:13.738Z,1019.08
2023-01-27T06:01:13.772Z,1019.07
2023-01-27T06:02:13.745Z,1019.05
2023-01-27T06:03:13.747Z,1019.01
2023-01-27T06:04:13.702Z,1019.01
2023-01-27T06:05:14.098Z,1019.01
2023-01-27T06:06:13.680Z,1018.95
2023-01-27T06:07:13.650Z,1018.99
2023-01-27T06:08:13.642Z,1018.99
2023-01-27T06:09:13.650Z,1018.93
2023-01-27T06:10:13.626Z,1018.92
2023-01-27T06:11:13.613Z,1018.95
2023-01-27T06:12:13.598Z,1018.97
2023-01-27T06:13:13.592Z,1018.93
2023-01-27T06:14:13.597Z,1018.95
2023-01-27T06:15:14.003Z,1018.88
2023-01-27T06:16:13.594Z,1018.96
2023-01-27T06:17:13.563Z,1018.98
2023-01-27T06:18:13.559Z,1018.97
2023-01-27T06:19:13.528Z,1018.97
2023-01-27T06:20:13.552Z,1018.99
2023-01-27T06:21:13.515Z,1018.99
2023-01-27T06:22:13.494Z,1018.98
2023-01-27T06:23:13.477Z,1018.94
2023-01-27T06:24:13.868Z,1018.93
2023-01-27T06:25:13.795Z,1018.94
2023-01-27T06:26:13.456Z,1018.94
2023-01-27T06:27:13.443Z,1018.94
2023-01-27T06:28:27.898Z,1018.95
2023-01-27T06:29:14.424Z,1018.95
2023-01-27T06:30:13.438Z,1019.01
2023-01-27T06:31:13.441Z,1018.95
2023-01-27T06:32:13.382Z,1019.00
2023-01-27T06:33:14.833Z,1018.94
2023-01-27T06:34:13.365Z,1019.00
2023-01-27T06:35:13.774Z,1018.98
2023-01-27T06:36:13.368Z,1018.98
2023-01-27T06:37:13.334Z,1019.02
2023-01-27T06:38:13.334Z,1018.99
2023-01-27T06:39:13.308Z,1019.08
2023-01-27T06:40:13.661Z,1019.13
2023-01-27T06:41:13.310Z,1019.11
2023-01-27T06:42:13.278Z,1019.17
2023-01-27T06:43:13.262Z,1019.16
2023-01-27T06:44:13.258Z,1019.12
2023-01-27T06:45:13.251Z,1019.19
2023-01-27T06:46:13.335Z,1019.18
2023-01-27T06:47:13.223Z,1019.14
2023-01-27T06:48:13.219Z,1019.21
2023-01-27T06:49:13.226Z,1019.23
2023-01-27T06:50:13.495Z,1019.17
2023-01-27T06:51:13.178Z,1019.21
2023-01-27T06:52:13.169Z,1019.16
2023-01-27T06:53:13.186Z,1019.11
2023-01-27T06:54:13.153Z,1019.04
2023-01-27T06:55:13.139Z,1019.12
2023-01-27T06:56:13.131Z,1019.18
2023-01-27T06:57:13.116Z,1019.19
2023-01-27T06:58:13.122Z,1019.16
2023-01-27T06:59:13.095Z,1019.16
2023-01-27T07:00:13.376Z,1019.22
2023-01-27T07:01:13.128Z,1019.21
2023-01-27T07:02:13.136Z,1019.21
2023-01-27T07:03:13.051Z,1019.29
2023-01-27T07:04:13.043Z,1019.31
2023-01-27T07:05:13.088Z,1019.23
2023-01-27T07:06:13.020Z,1019.29
2023-01-27T07:07:13.008Z,1019.33
2023-01-27T07:08:13.007Z,1019.31
2023-01-27T07:09:12.984Z,1019.27
2023-01-27T07:10:13.354Z,1019.29
2023-01-27T07:11:12.990Z,1019.27
2023-01-27T07:12:12.957Z,1019.33
2023-01-27T07:13:12.942Z,1019.34
2023-01-27T07:14:12.955Z,1019.37
2023-01-27T07:15:12.921Z,1019.37
2023-01-27T07:16:12.997Z,1019.31
2023-01-27T07:17:12.899Z,1019.39
2023-01-27T07:18:12.890Z,1019.38
2023-01-27T07:19:12.886Z,1019.41
2023-01-27T07:20:13.285Z,1019.38
2023-01-27T07:21:12.899Z,1019.40
2023-01-27T07:22:12.870Z,1019.44
2023-01-27T07:23:12.835Z,1019.44
2023-01-27T07:24:13.063Z,1019.46
2023-01-27T07:25:12.819Z,1019.44
2023-01-27T07:26:24.546Z,1019.48
2023-01-27T07:27:13.795Z,1019.52
2023-01-27T07:28:12.792Z,1019.53
2023-01-27T07:29:12.773Z,1019.47
2023-01-27T07:30:13.078Z,1019.45
2023-01-27T07:31:12.944Z,1019.51
2023-01-27T07:32:12.748Z,1019.53
2023-01-27T07:33:12.734Z,1019.46
2023-01-27T07:34:12.747Z,1019.52
2023-01-27T07:35:12.708Z,1019.58
2023-01-27T07:36:12.702Z,1019.50
2023-01-27T07:37:12.708Z,1019.53
2023-01-27T07:38:12.678Z,1019.48
2023-01-27T07:39:12.689Z,1019.47
2023-01-27T07:40:13.039Z,1019.50
2023-01-27T07:41:12.648Z,1019.52
2023-01-27T07:42:12.636Z,1019.52
2023-01-27T07:43:12.629Z,1019.53
2023-01-27T07:44:12.635Z,1019.55
2023-01-27T07:45:12.614Z,1019.54
2023-01-27T07:46:12.640Z,1019.50
2023-01-27T07:47:12.584Z,1019.51
2023-01-27T07:48:12.634Z,1019.59
2023-01-27T07:49:12.604Z,1019.61
2023-01-27T07:50:12.891Z,1019.63
2023-01-27T07:51:12.541Z,1019.63
2023-01-27T07:52:12.532Z,1019.61
2023-01-27T07:53:12.549Z,1019.64
2023-01-27T07:54:12.539Z,1019.67
2023-01-27T07:55:12.794Z,1019.63
2023-01-27T07:56:12.485Z,1019.62
2023-01-27T07:57:12.470Z,1019.59
2023-01-27T07:58:12.469Z,1019.62
2023-01-27T07:59:12.485Z,1019.59
2023-01-27T08:00:12.824Z,1019.60
2023-01-27T08:01:12.535Z,1019.59
2023-01-27T08:02:12.425Z,1019.61
2023-01-27T08:03:12.444Z,1019.59
2023-01-27T08:04:12.421Z,1019.66
2023-01-27T08:05:12.405Z,1019.60
2023-01-27T08:06:12.394Z,1019.62
2023-01-27T08:07:12.367Z,1019.69
2023-01-27T08:08:12.364Z,1019.72
2023-01-27T08:09:12.403Z,1019.71
2023-01-27T08:10:12.681Z,1019.69
2023-01-27T08:11:12.332Z,1019.70
2023-01-27T08:12:12.318Z,1019.70
2023-01-27T08:13:12.321Z,1019.67
2023-01-27T08:14:12.301Z,1019.76
2023-01-27T08:15:12.319Z,1019.74
2023-01-27T08:16:12.287Z,1019.69
2023-01-27T08:17:12.298Z,1019.69
2023-01-27T08:18:12.256Z,1019.73
2023-01-27T08:19:12.238Z,1019.72
2023-01-27T08:20:12.619Z,1019.72
2023-01-27T08:21:12.236Z,1019.74
2023-01-27T08:22:12.241Z,1019.70
2023-01-27T08:23:12.201Z,1019.71
2023-01-27T08:24:12.246Z,1019.74
2023-01-27T08:25:12.191Z,1019.70
2023-01-27T08:26:12.169Z,1019.69
2023-01-27T08:27:12.148Z,1019.77
2023-01-27T08:28:12.144Z,1019.73
2023-01-27T08:29:12.171Z,1019.78
2023-01-27T08:30:12.506Z,1019.75
2023-01-27T08:31:12.186Z,1019.76
2023-01-27T08:32:14.879Z,1019.83
2023-01-27T08:33:12.123Z,1019.84
2023-01-27T08:34:12.088Z,1019.89
2023-01-27T08:35:12.100Z,1019.82
2023-01-27T08:36:12.056Z,1019.81
2023-01-27T08:37:12.042Z,1019.77
2023-01-27T08:38:12.034Z,1019.76
2023-01-27T08:39:12.061Z,1019.76
2023-01-27T08:40:12.425Z,1019.83
2023-01-27T08:41:12.024Z,1019.80
2023-01-27T08:42:12.075Z,1019.84
2023-01-27T08:43:11.978Z,1019.82
2023-01-27T08:44:12.008Z,1019.86
2023-01-27T08:45:12.011Z,1019.91
2023-01-27T08:46:11.964Z,1019.86
2023-01-27T08:47:11.934Z,1019.86
2023-01-27T08:48:12.421Z,1019.91
2023-01-27T08:49:11.917Z,1019.91
2023-01-27T08:50:12.456Z,1019.85
2023-01-27T08:51:11.908Z,1019.87
2023-01-27T08:52:11.968Z,1019.91
2023-01-27T08:53:11.872Z,1019.95
2023-01-27T08:54:11.867Z,1019.90
2023-01-27T08:55:11.919Z,1019.88
2023-01-27T08:56:11.860Z,1019.93
2023-01-27T08:57:11.850Z,1019.91
2023-01-27T08:58:11.862Z,1019.96
2023-01-27T08:59:11.806Z,1019.99
2023-01-27T09:00:12.225Z,1019.95
2023-01-27T09:01:11.869Z,1020.04
2023-01-27T09:02:11.779Z,1019.95
2023-01-27T09:03:11.759Z,1019.96
2023-01-27T09:04:11.833Z,1020.03
2023-01-27T09:05:11.752Z,1020.05
2023-01-27T09:06:11.744Z,1020.04
2023-01-27T09:07:11.717Z,1020.05
2023-01-27T09:08:11.718Z,1020.07
2023-01-27T09:09:12.452Z,1020.01
2023-01-27T09:10:14.900Z,1020.06
2023-01-27T09:11:11.676Z,1020.10
2023-01-27T09:12:11.666Z,1020.09
2023-01-27T09:13:11.679Z,1020.12
2023-01-27T09:14:11.653Z,1020.09
2023-01-27T09:15:11.672Z,1020.15
2023-01-27T09:16:11.653Z,1020.16
2023-01-27T09:17:11.628Z,1020.15
2023-01-27T09:18:11.611Z,1020.12
2023-01-27T09:19:11.593Z,1020.15
2023-01-27T09:20:12.200Z,1020.19
2023-01-27T09:21:11.616Z,1020.22
2023-01-27T09:22:11.593Z,1020.18
2023-01-27T09:23:11.547Z,1020.20
2023-01-27T09:24:11.621Z,1020.22
2023-01-27T09:25:11.540Z,1020.26
2023-01-27T09:26:11.528Z,1020.23
2023-01-27T09:27:11.545Z,1020.24
2023-01-27T09:28:11.493Z,1020.27
2023-01-27T09:29:11.527Z,1020.27
2023-01-27T09:30:12.000Z,1020.22
2023-01-27T09:31:11.595Z,1020.28
2023-01-27T09:32:11.523Z,1020.24
2023-01-27T09:33:11.442Z,1020.26
2023-01-27T09:34:11.425Z,1020.33
2023-01-27T09:35:12.012Z,1020.30
2023-01-27T09:36:11.447Z,1020.33
2023-01-27T09:37:11.392Z,1020.31
2023-01-27T09:38:11.409Z,1020.29
2023-01-27T09:39:11.380Z,1020.27
2023-01-27T09:40:11.371Z,1020.29
2023-01-27T09:41:11.384Z,1020.35
2023-01-27T09:42:13.184Z,1020.41
2023-01-27T09:43:11.326Z,1020.29
2023-01-27T09:44:11.325Z,1020.37
2023-01-27T09:45:11.775Z,1020.36
2023-01-27T09:46:11.405Z,1020.39
2023-01-27T09:47:11.286Z,1020.37
2023-01-27T09:48:11.293Z,1020.42
2023-01-27T09:49:11.263Z,1020.41
2023-01-27T09:50:11.544Z,1020.42
2023-01-27T09:51:11.279Z,1020.41
2023-01-27T09:52:11.241Z,1020.39
2023-01-27T09:53:11.229Z,1020.41
2023-01-27T09:54:11.209Z,1020.41
2023-01-27T09:55:11.628Z,1020.45
2023-01-27T09:56:12.376Z,1020.38
2023-01-27T09:57:11.188Z,1020.44
2023-01-27T09:58:11.172Z,1020.44
2023-01-27T09:59:11.206Z,1020.42
2023-01-27T10:00:11.296Z,1020.53
2023-01-27T10:01:11.272Z,1020.47
2023-01-27T10:02:11.123Z,1020.54
2023-01-27T10:03:11.112Z,1020.50
2023-01-27T10:04:11.140Z,1020.51
2023-01-27T10:05:11.092Z,1020.45
2023-01-27T10:06:11.092Z,1020.46
2023-01-27T10:07:11.109Z,1020.56
2023-01-27T10:08:11.066Z,1020.46
2023-01-27T10:09:11.080Z,1020.47
2023-01-27T10:10:11.346Z,1020.43
2023-01-27T10:11:11.032Z,1020.43
2023-01-27T10:12:11.014Z,1020.45
2023-01-27T10:13:11.007Z,1020.38
2023-01-27T10:14:11.027Z,1020.44
2023-01-27T10:15:10.992Z,1020.42
2023-01-27T10:16:10.988Z,1020.45
2023-01-27T10:17:10.984Z,1020.40
2023-01-27T10:18:10.953Z,1020.45
2023-01-27T10:19:10.980Z,1020.49
2023-01-27T10:20:11.046Z,1020.47
2023-01-27T10:21:10.924Z,1020.53
2023-01-27T10:22:10.948Z,1020.52
2023-01-27T10:23:10.903Z,1020.53
2023-01-27T10:24:10.994Z,1020.53
2023-01-27T10:25:10.878Z,1020.56
2023-01-27T10:26:10.868Z,1020.53
2023-01-27T10:27:10.858Z,1020.54
2023-01-27T10:28:10.878Z,1020.58
2023-01-27T10:29:10.848Z,1020.59
2023-01-27T10:30:11.013Z,1020.62
2023-01-27T10:31:10.950Z,1020.63
2023-01-27T10:32:10.799Z,1020.56
2023-01-27T10:33:10.845Z,1020.61
2023-01-27T10:34:10.778Z,1020.60
2023-01-27T10:35:10.787Z,1020.55
2023-01-27T10:36:10.766Z,1020.60
2023-01-27T10:37:10.757Z,1020.57
2023-01-27T10:38:10.784Z,1020.56
2023-01-27T10:39:10.739Z,1020.63
2023-01-27T10:40:10.942Z,1020.60
2023-01-27T10:41:10.708Z,1020.61
2023-01-27T10:42:10.697Z,1020.51
2023-01-27T10:43:10.683Z,1020.61
2023-01-27T10:44:10.714Z,1020.65
2023-01-27T10:45:10.669Z,1020.62
2023-01-27T10:46:10.652Z,1020.56
2023-01-27T10:47:10.642Z,1020.57
2023-01-27T10:48:10.629Z,1020.61
2023-01-27T10:49:10.671Z,1020.57
2023-01-27T10:50:10.800Z,1020.54
2023-01-27T10:51:10.636Z,1020.53
2023-01-27T10:52:10.591Z,1020.53
2023-01-27T10:53:10.580Z,1020.59
2023-01-27T10:54:10.571Z,1020.60
2023-01-27T10:55:10.556Z,1020.57
2023-01-27T10:56:10.672Z,1020.55
2023-01-27T10:57:10.542Z,1020.60
2023-01-27T10:58:10.526Z,1020.51
2023-01-27T10:59:10.520Z,1020.54
2023-01-27T11:00:38.001Z,1020.58
2023-01-27T11:01:21.419Z,1020.57
2023-01-27T11:02:11.529Z,1020.61
2023-01-27T11:03:10.473Z,1020.60
2023-01-27T11:04:11.017Z,1020.61
2023-01-27T11:05:10.499Z,1020.60
2023-01-27T11:06:10.437Z,1020.65
2023-01-27T11:07:10.470Z,1020.61
2023-01-27T11:08:10.432Z,1020.65
2023-01-27T11:09:10.408Z,1020.69
2023-01-27T11:10:10.415Z,1020.64
2023-01-27T11:11:10.387Z,1020.66
2023-01-27T11:12:10.414Z,1020.65
2023-01-27T11:13:10.369Z,1020.66
2023-01-27T11:14:10.352Z,1020.68
2023-01-27T11:15:10.346Z,1020.63
2023-01-27T11:16:10.354Z,1020.72
2023-01-27T11:17:10.345Z,1020.63
2023-01-27T11:18:10.313Z,1020.64
2023-01-27T11:19:10.306Z,1020.59
2023-01-27T11:20:10.358Z,1020.64
2023-01-27T11:21:10.305Z,1020.64
2023-01-27T11:22:10.329Z,1020.68
2023-01-27T11:23:10.289Z,1020.64
2023-01-27T11:24:10.307Z,1020.61
2023-01-27T11:25:10.243Z,1020.62
2023-01-27T11:26:10.229Z,1020.61
2023-01-27T11:27:10.257Z,1020.58
2023-01-27T11:28:10.206Z,1020.60
2023-01-27T11:29:10.215Z,1020.58
2023-01-27T11:30:10.256Z,1020.52
2023-01-27T11:31:10.239Z,1020.60
2023-01-27T11:32:10.187Z,1020.57
2023-01-27T11:33:10.176Z,1020.56
2023-01-27T11:34:10.137Z,1020.54
2023-01-27T11:35:10.143Z,1020.55
2023-01-27T11:36:10.120Z,1020.53
2023-01-27T11:37:10.148Z,1020.62
2023-01-27T11:38:15.677Z,1020.59
2023-01-27T11:39:11.087Z,1020.56
2023-01-27T11:40:10.092Z,1020.55
2023-01-27T11:41:10.071Z,1020.54
2023-01-27T11:42:10.089Z,1020.53
2023-01-27T11:43:10.087Z,1020.57
2023-01-27T11:44:10.037Z,1020.53
2023-01-27T11:45:10.032Z,1020.53
2023-01-27T11:46:10.131Z,1020.57
2023-01-27T11:47:10.029Z,1020.50
2023-01-27T11:48:09.993Z,1020.55
2023-01-27T11:49:10.018Z,1020.52
2023-01-27T11:50:09.971Z,1020.50
2023-01-27T11:51:09.962Z,1020.54
2023-01-27T11:52:09.951Z,1020.55
2023-01-27T11:53:09.972Z,1020.48
2023-01-27T11:54:09.965Z,1020.54
2023-01-27T11:55:09.923Z,1020.59
2023-01-27T11:56:09.913Z,1020.54
2023-01-27T11:57:09.896Z,1020.53
2023-01-27T11:58:09.890Z,1020.56
2023-01-27T11:59:09.912Z,1020.54
2023-01-27T12:00:09.868Z,1020.59
2023-01-27T12:01:09.861Z,1020.52
2023-01-27T12:02:09.843Z,1020.50
2023-01-27T12:03:09.832Z,1020.56
2023-01-27T12:04:09.858Z,1020.55
2023-01-27T12:05:09.838Z,1020.55